sensor_id;sensor_type;location;lat;lon;timestamp;P1;durP1;ratioP1;P2;durP2;ratioP2
69404;SDS011;57084;52.046;5.632;2022-10-03T00:00:09;6.5;;;2.1;;
69404;SDS011;57084;52.046;5.632;2022-10-03T00:01:14;6.5;;;2.1;;
69404;SDS011;57084;52.046;5.632;2022-10-03T00:02:12;6.5;;;2.1;;
69404;SDS011;57084;52.046;5.632;2022-10-03T00:03:15;7.5;;;2.1;;
69404;SDS011;57084;52.046;5.632;2022-10-03T00:04:13;7.5;;;2.1;;
69404;SDS011;57084;52.046;5.632;2022-10-03T00:05:08;7.5;;;2.1;;
69404;SDS011;57084;52.046;5.632;2022-10-03T00:06:07;7.5;;;2.1;;
69404;SDS011;57084;52.046;5.632;2022-10-03T00:07:09;7.5;;;2.1;;
69404;SDS011;57084;52.046;5.632;2022-10-03T00:08:06;8.6;;;2.2;;
69404;SDS011;57084;52.046;5.632;2022-10-03T00:09:17;8.6;;;2.2;;
69404;SDS011;57084;52.046;5.632;2022-10-03T00:10:13;8.6;;;2.2;;
69404;SDS011;57084;52.046;5.632;2022-10-03T00:11:07;8.6;;;2.2;;
69404;SDS011;57084;52.046;5.632;2022-10-03T00:12:09;8.6;;;2.2;;
69404;SDS011;57084;52.046;5.632;2022-10-03T00:13:07;7.5;;;2.4;;
69404;SDS011;57084;52.046;5.632;2022-10-03T00:14:03;7.5;;;2.4;;
69404;SDS011;57084;52.046;5.632;2022-10-03T00:15:03;7.5;;;2.4;;
69404;SDS011;57084;52.046;5.632;2022-10-03T00:16:06;7.5;;;2.4;;
69404;SDS011;57084;52.046;5.632;2022-10-03T00:17:06;7.5;;;2.4;;
69404;SDS011;57084;52.046;5.632;2022-10-03T00:18:09;7.5;;;2.0;;
69404;SDS011;57084;52.046;5.632;2022-10-03T00:19:07;7.5;;;2.0;;
69404;SDS011;57084;52.046;5.632;2022-10-03T00:21:16;7.5;;;2.0;;
69404;SDS011;57084;52.046;5.632;2022-10-03T00:22:10;7.5;;;2.0;;
69404;SDS011;57084;52.046;5.632;2022-10-03T00:23:03;9.6;;;2.3;;
69404;SDS011;57084;52.046;5.632;2022-10-03T00:24:06;9.6;;;2.3;;
69404;SDS011;57084;52.046;5.632;2022-10-03T00:25:26;9.6;;;2.3;;
69404;SDS011;57084;52.046;5.632;2022-10-03T00:26:05;9.6;;;2.3;;
69404;SDS011;57084;52.046;5.632;2022-10-03T00:27:02;9.6;;;2.3;;
69404;SDS011;57084;52.046;5.632;2022-10-03T00:28:11;8.8;;;2.5;;
69404;SDS011;57084;52.046;5.632;2022-10-03T00:29:08;8.8;;;2.5;;
69404;SDS011;57084;52.046;5.632;2022-10-03T00:30:10;8.8;;;2.5;;
69404;SDS011;57084;52.046;5.632;2022-10-03T00:31:08;8.8;;;2.5;;
69404;SDS011;57084;52.046;5.632;2022-10-03T00:32:08;8.8;;;2.5;;
69404;SDS011;57084;52.046;5.632;2022-10-03T00:33:11;9.2;;;2.3;;
69404;SDS011;57084;52.046;5.632;2022-10-03T00:34:06;9.2;;;2.3;;
69404;SDS011;57084;52.046;5.632;2022-10-03T00:35:04;9.2;;;2.3;;
69404;SDS011;57084;52.046;5.632;2022-10-03T00:36:05;9.2;;;2.3;;
69404;SDS011;57084;52.046;5.632;2022-10-03T00:37:14;9.2;;;2.3;;
69404;SDS011;57084;52.046;5.632;2022-10-03T00:38:07;6.4;;;2.3;;
69404;SDS011;57084;52.046;5.632;2022-10-03T00:39:07;6.4;;;2.3;;
69404;SDS011;57084;52.046;5.632;2022-10-03T00:40:18;6.4;;;2.3;;
69404;SDS011;57084;52.046;5.632;2022-10-03T00:41:13;6.4;;;2.3;;
69404;SDS011;57084;52.046;5.632;2022-10-03T00:42:19;6.4;;;2.3;;
69404;SDS011;57084;52.046;5.632;2022-10-03T00:43:08;8.3;;;2.7;;
69404;SDS011;57084;52.046;5.632;2022-10-03T00:44:20;8.3;;;2.7;;
69404;SDS011;57084;52.046;5.632;2022-10-03T00:45:17;8.3;;;2.7;;
69404;SDS011;57084;52.046;5.632;2022-10-03T00:46:21;8.3;;;2.7;;
69404;SDS011;57084;52.046;5.632;2022-10-03T00:47:10;8.3;;;2.7;;
69404;SDS011;57084;52.046;5.632;2022-10-03T00:48:08;7.2;;;2.5;;
69404;SDS011;57084;52.046;5.632;2022-10-03T00:49:13;7.2;;;2.5;;
69404;SDS011;57084;52.046;5.632;2022-10-03T00:50:13;7.2;;;2.5;;
69404;SDS011;57084;52.046;5.632;2022-10-03T00:51:09;7.2;;;2.5;;
69404;SDS011;57084;52.046;5.632;2022-10-03T00:52:08;7.2;;;2.5;;
69404;SDS011;57084;52.046;5.632;2022-10-03T00:53:10;8.6;;;2.4;;
69404;SDS011;57084;52.046;5.632;2022-10-03T00:54:13;8.6;;;2.4;;
69404;SDS011;57084;52.046;5.632;2022-10-03T00:55:08;8.6;;;2.4;;
69404;SDS011;57084;52.046;5.632;2022-10-03T00:56:10;8.6;;;2.4;;
69404;SDS011;57084;52.046;5.632;2022-10-03T00:57:12;8.6;;;2.4;;
69404;SDS011;57084;52.046;5.632;2022-10-03T00:58:08;11.3;;;2.5;;
69404;SDS011;57084;52.046;5.632;2022-10-03T00:59:14;11.3;;;2.5;;
69404;SDS011;57084;52.046;5.632;2022-10-03T01:00:12;11.3;;;2.5;;
69404;SDS011;57084;52.046;5.632;2022-10-03T01:01:29;11.3;;;2.5;;
69404;SDS011;57084;52.046;5.632;2022-10-03T01:02:30;11.3;;;2.5;;
69404;SDS011;57084;52.046;5.632;2022-10-03T01:03:08;7.8;;;2.6;;
69404;SDS011;57084;52.046;5.632;2022-10-03T01:04:12;7.8;;;2.6;;
69404;SDS011;57084;52.046;5.632;2022-10-03T01:05:08;7.8;;;2.6;;
69404;SDS011;57084;52.046;5.632;2022-10-03T01:06:10;7.8;;;2.6;;
69404;SDS011;57084;52.046;5.632;2022-10-03T01:07:06;7.8;;;2.6;;
69404;SDS011;57084;52.046;5.632;2022-10-03T01:08:11;9.9;;;2.4;;
69404;SDS011;57084;52.046;5.632;2022-10-03T01:09:12;9.9;;;2.4;;
69404;SDS011;57084;52.046;5.632;2022-10-03T01:10:11;9.9;;;2.4;;
69404;SDS011;57084;52.046;5.632;2022-10-03T01:11:07;9.9;;;2.4;;
69404;SDS011;57084;52.046;5.632;2022-10-03T01:12:14;9.9;;;2.4;;
69404;SDS011;57084;52.046;5.632;2022-10-03T01:13:11;12.1;;;2.8;;
69404;SDS011;57084;52.046;5.632;2022-10-03T01:14:10;12.1;;;2.8;;
69404;SDS011;57084;52.046;5.632;2022-10-03T01:15:10;12.1;;;2.8;;
69404;SDS011;57084;52.046;5.632;2022-10-03T01:16:06;12.1;;;2.8;;
69404;SDS011;57084;52.046;5.632;2022-10-03T01:17:10;12.1;;;2.8;;
69404;SDS011;57084;52.046;5.632;2022-10-03T01:18:08;8.8;;;2.5;;
69404;SDS011;57084;52.046;5.632;2022-10-03T01:19:08;8.8;;;2.5;;
69404;SDS011;57084;52.046;5.632;2022-10-03T01:20:15;8.8;;;2.5;;
69404;SDS011;57084;52.046;5.632;2022-10-03T01:21:08;8.8;;;2.5;;
69404;SDS011;57084;52.046;5.632;2022-10-03T01:22:15;8.8;;;2.5;;
69404;SDS011;57084;52.046;5.632;2022-10-03T01:23:14;8.3;;;2.5;;
69404;SDS011;57084;52.046;5.632;2022-10-03T01:24:16;8.3;;;2.5;;
69404;SDS011;57084;52.046;5.632;2022-10-03T01:25:10;8.3;;;2.5;;
69404;SDS011;57084;52.046;5.632;2022-10-03T01:26:09;8.3;;;2.5;;
69404;SDS011;57084;52.046;5.632;2022-10-03T01:27:02;8.3;;;2.5;;
69404;SDS011;57084;52.046;5.632;2022-10-03T01:28:25;7.9;;;2.6;;
69404;SDS011;57084;52.046;5.632;2022-10-03T01:29:04;7.9;;;2.6;;
69404;SDS011;57084;52.046;5.632;2022-10-03T01:30:02;7.9;;;2.6;;
69404;SDS011;57084;52.046;5.632;2022-10-03T01:31:04;7.9;;;2.6;;
69404;SDS011;57084;52.046;5.632;2022-10-03T01:32:03;7.9;;;2.6;;
69404;SDS011;57084;52.046;5.632;2022-10-03T01:33:08;9.0;;;2.6;;
69404;SDS011;57084;52.046;5.632;2022-10-03T01:34:06;9.0;;;2.6;;
69404;SDS011;57084;52.046;5.632;2022-10-03T01:35:05;9.0;;;2.6;;
69404;SDS011;57084;52.046;5.632;2022-10-03T01:36:02;9.0;;;2.6;;
69404;SDS011;57084;52.046;5.632;2022-10-03T01:37:07;9.0;;;2.6;;
69404;SDS011;57084;52.046;5.632;2022-10-03T01:38:08;9.0;;;2.6;;
69404;SDS011;57084;52.046;5.632;2022-10-03T01:39:05;8.9;;;2.6;;
69404;SDS011;57084;52.046;5.632;2022-10-03T01:40:06;8.9;;;2.6;;
69404;SDS011;57084;52.046;5.632;2022-10-03T01:41:05;8.9;;;2.6;;
69404;SDS011;57084;52.046;5.632;2022-10-03T01:42:06;8.9;;;2.6;;
69404;SDS011;57084;52.046;5.632;2022-10-03T01:43:09;8.9;;;2.6;;
69404;SDS011;57084;52.046;5.632;2022-10-03T01:44:07;8.6;;;2.8;;
69404;SDS011;57084;52.046;5.632;2022-10-03T01:45:09;8.6;;;2.8;;
69404;SDS011;57084;52.046;5.632;2022-10-03T01:46:07;8.6;;;2.8;;
69404;SDS011;57084;52.046;5.632;2022-10-03T01:47:08;8.6;;;2.8;;
69404;SDS011;57084;52.046;5.632;2022-10-03T01:48:02;8.6;;;2.8;;
69404;SDS011;57084;52.046;5.632;2022-10-03T01:49:07;8.9;;;2.6;;
69404;SDS011;57084;52.046;5.632;2022-10-03T01:50:05;8.9;;;2.6;;
69404;SDS011;57084;52.046;5.632;2022-10-03T01:51:07;8.9;;;2.6;;
69404;SDS011;57084;52.046;5.632;2022-10-03T01:52:05;8.9;;;2.6;;
69404;SDS011;57084;52.046;5.632;2022-10-03T01:53:05;8.9;;;2.6;;
69404;SDS011;57084;52.046;5.632;2022-10-03T01:54:05;9.2;;;2.6;;
69404;SDS011;57084;52.046;5.632;2022-10-03T01:55:05;9.2;;;2.6;;
69404;SDS011;57084;52.046;5.632;2022-10-03T01:56:05;9.2;;;2.6;;
69404;SDS011;57084;52.046;5.632;2022-10-03T01:57:07;9.2;;;2.6;;
69404;SDS011;57084;52.046;5.632;2022-10-03T01:58:04;9.2;;;2.6;;
69404;SDS011;57084;52.046;5.632;2022-10-03T01:59:04;7.3;;;2.5;;
69404;SDS011;57084;52.046;5.632;2022-10-03T02:00:03;7.3;;;2.5;;
69404;SDS011;57084;52.046;5.632;2022-10-03T02:01:06;7.3;;;2.5;;
69404;SDS011;57084;52.046;5.632;2022-10-03T02:02:05;7.3;;;2.5;;
69404;SDS011;57084;52.046;5.632;2022-10-03T02:03:06;7.3;;;2.5;;
69404;SDS011;57084;52.046;5.632;2022-10-03T02:04:05;8.6;;;2.8;;
69404;SDS011;57084;52.046;5.632;2022-10-03T02:05:06;8.6;;;2.8;;
69404;SDS011;57084;52.046;5.632;2022-10-03T02:06:07;8.6;;;2.8;;
69404;SDS011;57084;52.046;5.632;2022-10-03T02:07:06;8.6;;;2.8;;
69404;SDS011;57084;52.046;5.632;2022-10-03T02:08:04;8.6;;;2.8;;
69404;SDS011;57084;52.046;5.632;2022-10-03T02:09:06;13.0;;;2.7;;
69404;SDS011;57084;52.046;5.632;2022-10-03T02:10:05;13.0;;;2.7;;
69404;SDS011;57084;52.046;5.632;2022-10-03T02:11:02;13.0;;;2.7;;
69404;SDS011;57084;52.046;5.632;2022-10-03T02:12:07;13.0;;;2.7;;
69404;SDS011;57084;52.046;5.632;2022-10-03T02:13:08;13.0;;;2.7;;
69404;SDS011;57084;52.046;5.632;2022-10-03T02:14:07;8.0;;;2.5;;
69404;SDS011;57084;52.046;5.632;2022-10-03T02:15:07;8.0;;;2.5;;
69404;SDS011;57084;52.046;5.632;2022-10-03T02:16:06;8.0;;;2.5;;
69404;SDS011;57084;52.046;5.632;2022-10-03T02:17:04;8.0;;;2.5;;
69404;SDS011;57084;52.046;5.632;2022-10-03T02:18:08;8.0;;;2.5;;
69404;SDS011;57084;52.046;5.632;2022-10-03T02:19:05;10.3;;;2.8;;
69404;SDS011;57084;52.046;5.632;2022-10-03T02:20:04;10.3;;;2.8;;
69404;SDS011;57084;52.046;5.632;2022-10-03T02:21:07;10.3;;;2.8;;
69404;SDS011;57084;52.046;5.632;2022-10-03T02:22:00;10.3;;;2.8;;
69404;SDS011;57084;52.046;5.632;2022-10-03T02:23:00;10.3;;;2.8;;
69404;SDS011;57084;52.046;5.632;2022-10-03T02:24:22;7.9;;;2.7;;
69404;SDS011;57084;52.046;5.632;2022-10-03T02:25:10;7.9;;;2.7;;
69404;SDS011;57084;52.046;5.632;2022-10-03T02:26:19;7.9;;;2.7;;
69404;SDS011;57084;52.046;5.632;2022-10-03T02:28:19;7.9;;;2.7;;
69404;SDS011;57084;52.046;5.632;2022-10-03T02:29:09;8.3;;;2.6;;
69404;SDS011;57084;52.046;5.632;2022-10-03T02:30:10;8.3;;;2.6;;
69404;SDS011;57084;52.046;5.632;2022-10-03T02:35:09;8.5;;;2.4;;
69404;SDS011;57084;52.046;5.632;2022-10-03T02:36:14;8.5;;;2.4;;
69404;SDS011;57084;52.046;5.632;2022-10-03T02:37:17;8.5;;;2.4;;
69404;SDS011;57084;52.046;5.632;2022-10-03T02:38:22;8.5;;;2.4;;
69404;SDS011;57084;52.046;5.632;2022-10-03T02:41:12;9.2;;;2.6;;
69404;SDS011;57084;52.046;5.632;2022-10-03T02:42:24;9.2;;;2.6;;
69404;SDS011;57084;52.046;5.632;2022-10-03T02:43:17;9.2;;;2.6;;
69404;SDS011;57084;52.046;5.632;2022-10-03T02:44:15;8.8;;;2.8;;
69404;SDS011;57084;52.046;5.632;2022-10-03T02:46:35;8.8;;;2.8;;
69404;SDS011;57084;52.046;5.632;2022-10-03T02:47:23;8.8;;;2.8;;
69404;SDS011;57084;52.046;5.632;2022-10-03T02:48:31;8.8;;;2.8;;
69404;SDS011;57084;52.046;5.632;2022-10-03T02:49:15;10.3;;;2.5;;
69404;SDS011;57084;52.046;5.632;2022-10-03T02:50:16;10.3;;;2.5;;
69404;SDS011;57084;52.046;5.632;2022-10-03T02:51:14;10.3;;;2.5;;
69404;SDS011;57084;52.046;5.632;2022-10-03T02:52:15;10.3;;;2.5;;
69404;SDS011;57084;52.046;5.632;2022-10-03T02:55:17;7.8;;;2.2;;
69404;SDS011;57084;52.046;5.632;2022-10-03T02:57:15;7.8;;;2.2;;
69404;SDS011;57084;52.046;5.632;2022-10-03T02:58:16;7.8;;;2.2;;
69404;SDS011;57084;52.046;5.632;2022-10-03T02:59:22;9.6;;;2.9;;
69404;SDS011;57084;52.046;5.632;2022-10-03T03:00:06;9.6;;;2.9;;
69404;SDS011;57084;52.046;5.632;2022-10-03T03:01:21;9.6;;;2.9;;
69404;SDS011;57084;52.046;5.632;2022-10-03T03:02:11;9.6;;;2.9;;
69404;SDS011;57084;52.046;5.632;2022-10-03T03:03:29;9.6;;;2.9;;
69404;SDS011;57084;52.046;5.632;2022-10-03T03:04:16;11.1;;;2.6;;
69404;SDS011;57084;52.046;5.632;2022-10-03T03:05:21;11.1;;;2.6;;
69404;SDS011;57084;52.046;5.632;2022-10-03T03:06:15;11.1;;;2.6;;
69404;SDS011;57084;52.046;5.632;2022-10-03T03:07:16;11.1;;;2.6;;
69404;SDS011;57084;52.046;5.632;2022-10-03T03:08:15;11.1;;;2.6;;
69404;SDS011;57084;52.046;5.632;2022-10-03T03:09:10;5.9;;;2.3;;
69404;SDS011;57084;52.046;5.632;2022-10-03T03:10:21;5.9;;;2.3;;
69404;SDS011;57084;52.046;5.632;2022-10-03T03:11:08;5.9;;;2.3;;
69404;SDS011;57084;52.046;5.632;2022-10-03T03:12:23;5.9;;;2.3;;
69404;SDS011;57084;52.046;5.632;2022-10-03T03:13:14;5.9;;;2.3;;
69404;SDS011;57084;52.046;5.632;2022-10-03T03:14:17;6.9;;;2.4;;
69404;SDS011;57084;52.046;5.632;2022-10-03T03:15:23;6.9;;;2.4;;
69404;SDS011;57084;52.046;5.632;2022-10-03T03:16:19;6.9;;;2.4;;
69404;SDS011;57084;52.046;5.632;2022-10-03T03:17:06;6.9;;;2.4;;
69404;SDS011;57084;52.046;5.632;2022-10-03T03:18:05;6.9;;;2.4;;
69404;SDS011;57084;52.046;5.632;2022-10-03T03:19:15;7.1;;;2.4;;
69404;SDS011;57084;52.046;5.632;2022-10-03T03:20:10;7.1;;;2.4;;
69404;SDS011;57084;52.046;5.632;2022-10-03T03:21:08;7.1;;;2.4;;
69404;SDS011;57084;52.046;5.632;2022-10-03T03:22:11;7.1;;;2.4;;
69404;SDS011;57084;52.046;5.632;2022-10-03T03:23:09;7.1;;;2.4;;
69404;SDS011;57084;52.046;5.632;2022-10-03T03:24:13;7.5;;;2.5;;
69404;SDS011;57084;52.046;5.632;2022-10-03T03:25:11;7.5;;;2.5;;
69404;SDS011;57084;52.046;5.632;2022-10-03T03:26:10;7.5;;;2.5;;
69404;SDS011;57084;52.046;5.632;2022-10-03T03:27:14;7.5;;;2.5;;
69404;SDS011;57084;52.046;5.632;2022-10-03T03:28:13;7.5;;;2.5;;
69404;SDS011;57084;52.046;5.632;2022-10-03T03:29:07;7.3;;;2.4;;
69404;SDS011;57084;52.046;5.632;2022-10-03T03:30:04;7.3;;;2.4;;
69404;SDS011;57084;52.046;5.632;2022-10-03T03:31:08;7.3;;;2.4;;
69404;SDS011;57084;52.046;5.632;2022-10-03T03:32:06;7.3;;;2.4;;
69404;SDS011;57084;52.046;5.632;2022-10-03T03:33:06;7.3;;;2.4;;
69404;SDS011;57084;52.046;5.632;2022-10-03T03:34:07;8.2;;;2.0;;
69404;SDS011;57084;52.046;5.632;2022-10-03T03:35:07;8.2;;;2.0;;
69404;SDS011;57084;52.046;5.632;2022-10-03T03:36:04;8.2;;;2.0;;
69404;SDS011;57084;52.046;5.632;2022-10-03T03:37:04;8.2;;;2.0;;
69404;SDS011;57084;52.046;5.632;2022-10-03T03:38:11;8.2;;;2.0;;
69404;SDS011;57084;52.046;5.632;2022-10-03T03:39:09;8.2;;;2.0;;
69404;SDS011;57084;52.046;5.632;2022-10-03T03:40:07;7.8;;;2.3;;
69404;SDS011;57084;52.046;5.632;2022-10-03T03:41:13;7.8;;;2.3;;
69404;SDS011;57084;52.046;5.632;2022-10-03T03:42:17;7.8;;;2.3;;
69404;SDS011;57084;52.046;5.632;2022-10-03T03:43:11;7.8;;;2.3;;
69404;SDS011;57084;52.046;5.632;2022-10-03T03:44:17;7.9;;;2.2;;
69404;SDS011;57084;52.046;5.632;2022-10-03T03:45:07;7.9;;;2.2;;
69404;SDS011;57084;52.046;5.632;2022-10-03T03:46:13;7.9;;;2.2;;
69404;SDS011;57084;52.046;5.632;2022-10-03T03:47:11;7.9;;;2.2;;
69404;SDS011;57084;52.046;5.632;2022-10-03T03:48:12;7.9;;;2.2;;
69404;SDS011;57084;52.046;5.632;2022-10-03T03:49:07;7.9;;;2.2;;
69404;SDS011;57084;52.046;5.632;2022-10-03T03:50:15;7.9;;;2.2;;
69404;SDS011;57084;52.046;5.632;2022-10-03T03:51:09;7.9;;;2.2;;
69404;SDS011;57084;52.046;5.632;2022-10-03T03:52:08;7.9;;;2.2;;
69404;SDS011;57084;52.046;5.632;2022-10-03T03:53:15;7.9;;;2.2;;
69404;SDS011;57084;52.046;5.632;2022-10-03T03:54:15;7.9;;;2.2;;
69404;SDS011;57084;52.046;5.632;2022-10-03T03:55:08;8.8;;;2.5;;
69404;SDS011;57084;52.046;5.632;2022-10-03T03:56:15;8.8;;;2.5;;
69404;SDS011;57084;52.046;5.632;2022-10-03T03:57:12;8.8;;;2.5;;
69404;SDS011;57084;52.046;5.632;2022-10-03T03:58:12;8.8;;;2.5;;
69404;SDS011;57084;52.046;5.632;2022-10-03T03:59:11;8.8;;;2.5;;
69404;SDS011;57084;52.046;5.632;2022-10-03T04:00:05;11.0;;;2.5;;
69404;SDS011;57084;52.046;5.632;2022-10-03T04:01:08;11.0;;;2.5;;
69404;SDS011;57084;52.046;5.632;2022-10-03T04:02:10;11.0;;;2.5;;
69404;SDS011;57084;52.046;5.632;2022-10-03T04:03:07;11.0;;;2.5;;
69404;SDS011;57084;52.046;5.632;2022-10-03T04:04:14;11.0;;;2.5;;
69404;SDS011;57084;52.046;5.632;2022-10-03T04:05:11;6.9;;;2.3;;
69404;SDS011;57084;52.046;5.632;2022-10-03T04:06:15;6.9;;;2.3;;
69404;SDS011;57084;52.046;5.632;2022-10-03T04:07:10;6.9;;;2.3;;
69404;SDS011;57084;52.046;5.632;2022-10-03T04:08:09;6.9;;;2.3;;
69404;SDS011;57084;52.046;5.632;2022-10-03T04:09:13;6.9;;;2.3;;
69404;SDS011;57084;52.046;5.632;2022-10-03T04:10:10;10.2;;;2.3;;
69404;SDS011;57084;52.046;5.632;2022-10-03T04:11:05;10.2;;;2.3;;
69404;SDS011;57084;52.046;5.632;2022-10-03T04:12:03;10.2;;;2.3;;
69404;SDS011;57084;52.046;5.632;2022-10-03T04:13:12;10.2;;;2.3;;
69404;SDS011;57084;52.046;5.632;2022-10-03T04:14:17;10.2;;;2.3;;
69404;SDS011;57084;52.046;5.632;2022-10-03T04:15:07;7.1;;;2.3;;
69404;SDS011;57084;52.046;5.632;2022-10-03T04:16:11;7.1;;;2.3;;
69404;SDS011;57084;52.046;5.632;2022-10-03T04:17:10;7.1;;;2.3;;
69404;SDS011;57084;52.046;5.632;2022-10-03T04:18:13;7.1;;;2.3;;
69404;SDS011;57084;52.046;5.632;2022-10-03T04:19:06;7.1;;;2.3;;
69404;SDS011;57084;52.046;5.632;2022-10-03T04:20:09;6.7;;;2.4;;
69404;SDS011;57084;52.046;5.632;2022-10-03T04:21:11;6.7;;;2.4;;
69404;SDS011;57084;52.046;5.632;2022-10-03T04:22:13;6.7;;;2.4;;
69404;SDS011;57084;52.046;5.632;2022-10-03T04:23:11;6.7;;;2.4;;
69404;SDS011;57084;52.046;5.632;2022-10-03T04:24:07;6.7;;;2.4;;
69404;SDS011;57084;52.046;5.632;2022-10-03T04:25:10;8.2;;;2.3;;
69404;SDS011;57084;52.046;5.632;2022-10-03T04:26:10;8.2;;;2.3;;
69404;SDS011;57084;52.046;5.632;2022-10-03T04:27:11;8.2;;;2.3;;
69404;SDS011;57084;52.046;5.632;2022-10-03T04:28:10;8.2;;;2.3;;
69404;SDS011;57084;52.046;5.632;2022-10-03T04:30:06;7.3;;;2.3;;
69404;SDS011;57084;52.046;5.632;2022-10-03T04:31:06;7.3;;;2.3;;
69404;SDS011;57084;52.046;5.632;2022-10-03T04:32:06;7.3;;;2.3;;
69404;SDS011;57084;52.046;5.632;2022-10-03T04:33:09;7.3;;;2.3;;
69404;SDS011;57084;52.046;5.632;2022-10-03T04:34:12;7.3;;;2.3;;
69404;SDS011;57084;52.046;5.632;2022-10-03T04:35:34;7.8;;;2.4;;
69404;SDS011;57084;52.046;5.632;2022-10-03T04:36:14;7.8;;;2.4;;
69404;SDS011;57084;52.046;5.632;2022-10-03T04:37:07;7.8;;;2.4;;
69404;SDS011;57084;52.046;5.632;2022-10-03T04:38:08;7.8;;;2.4;;
69404;SDS011;57084;52.046;5.632;2022-10-03T04:39:06;7.8;;;2.4;;
69404;SDS011;57084;52.046;5.632;2022-10-03T04:40:15;8.1;;;2.1;;
69404;SDS011;57084;52.046;5.632;2022-10-03T04:41:04;8.1;;;2.1;;
69404;SDS011;57084;52.046;5.632;2022-10-03T04:42:02;8.1;;;2.1;;
69404;SDS011;57084;52.046;5.632;2022-10-03T04:43:06;8.1;;;2.1;;
69404;SDS011;57084;52.046;5.632;2022-10-03T04:44:08;8.1;;;2.1;;
69404;SDS011;57084;52.046;5.632;2022-10-03T04:45:09;5.4;;;2.4;;
69404;SDS011;57084;52.046;5.632;2022-10-03T04:46:14;5.4;;;2.4;;
69404;SDS011;57084;52.046;5.632;2022-10-03T04:47:05;5.4;;;2.4;;
69404;SDS011;57084;52.046;5.632;2022-10-03T04:48:09;5.4;;;2.4;;
69404;SDS011;57084;52.046;5.632;2022-10-03T04:49:04;5.4;;;2.4;;
69404;SDS011;57084;52.046;5.632;2022-10-03T04:50:06;6.9;;;2.3;;
69404;SDS011;57084;52.046;5.632;2022-10-03T04:51:05;6.9;;;2.3;;
69404;SDS011;57084;52.046;5.632;2022-10-03T04:52:04;6.9;;;2.3;;
69404;SDS011;57084;52.046;5.632;2022-10-03T04:53:16;6.9;;;2.3;;
69404;SDS011;57084;52.046;5.632;2022-10-03T04:54:08;6.9;;;2.3;;
69404;SDS011;57084;52.046;5.632;2022-10-03T04:55:05;10.5;;;2.9;;
69404;SDS011;57084;52.046;5.632;2022-10-03T04:56:20;10.5;;;2.9;;
69404;SDS011;57084;52.046;5.632;2022-10-03T04:57:04;10.5;;;2.9;;
69404;SDS011;57084;52.046;5.632;2022-10-03T04:58:05;10.5;;;2.9;;
69404;SDS011;57084;52.046;5.632;2022-10-03T04:59:07;10.5;;;2.9;;
69404;SDS011;57084;52.046;5.632;2022-10-03T05:00:05;6.7;;;2.5;;
69404;SDS011;57084;52.046;5.632;2022-10-03T05:01:07;6.7;;;2.5;;
69404;SDS011;57084;52.046;5.632;2022-10-03T05:02:03;6.7;;;2.5;;
69404;SDS011;57084;52.046;5.632;2022-10-03T05:03:04;6.7;;;2.5;;
69404;SDS011;57084;52.046;5.632;2022-10-03T05:04:06;6.7;;;2.5;;
69404;SDS011;57084;52.046;5.632;2022-10-03T05:05:11;8.6;;;2.6;;
69404;SDS011;57084;52.046;5.632;2022-10-03T05:06:04;8.6;;;2.6;;
69404;SDS011;57084;52.046;5.632;2022-10-03T05:07:05;8.6;;;2.6;;
69404;SDS011;57084;52.046;5.632;2022-10-03T05:08:05;8.6;;;2.6;;
69404;SDS011;57084;52.046;5.632;2022-10-03T05:09:14;8.6;;;2.6;;
69404;SDS011;57084;52.046;5.632;2022-10-03T05:10:04;11.0;;;2.8;;
69404;SDS011;57084;52.046;5.632;2022-10-03T05:11:03;11.0;;;2.8;;
69404;SDS011;57084;52.046;5.632;2022-10-03T05:12:06;11.0;;;2.8;;
69404;SDS011;57084;52.046;5.632;2022-10-03T05:13:07;11.0;;;2.8;;
69404;SDS011;57084;52.046;5.632;2022-10-03T05:14:03;11.0;;;2.8;;
69404;SDS011;57084;52.046;5.632;2022-10-03T05:15:12;14.5;;;2.9;;
69404;SDS011;57084;52.046;5.632;2022-10-03T05:16:07;14.5;;;2.9;;
69404;SDS011;57084;52.046;5.632;2022-10-03T05:17:07;14.5;;;2.9;;
69404;SDS011;57084;52.046;5.632;2022-10-03T05:18:05;14.5;;;2.9;;
69404;SDS011;57084;52.046;5.632;2022-10-03T05:19:14;14.5;;;2.9;;
69404;SDS011;57084;52.046;5.632;2022-10-03T05:20:13;10.2;;;2.5;;
69404;SDS011;57084;52.046;5.632;2022-10-03T05:21:04;10.2;;;2.5;;
69404;SDS011;57084;52.046;5.632;2022-10-03T05:22:03;10.2;;;2.5;;
69404;SDS011;57084;52.046;5.632;2022-10-03T05:23:06;10.2;;;2.5;;
69404;SDS011;57084;52.046;5.632;2022-10-03T05:24:10;10.2;;;2.5;;
69404;SDS011;57084;52.046;5.632;2022-10-03T05:25:15;6.5;;;2.6;;
69404;SDS011;57084;52.046;5.632;2022-10-03T05:26:06;6.5;;;2.6;;
69404;SDS011;57084;52.046;5.632;2022-10-03T05:27:09;6.5;;;2.6;;
69404;SDS011;57084;52.046;5.632;2022-10-03T05:28:06;6.5;;;2.6;;
69404;SDS011;57084;52.046;5.632;2022-10-03T05:29:05;6.5;;;2.6;;
69404;SDS011;57084;52.046;5.632;2022-10-03T05:30:04;6.8;;;2.5;;
69404;SDS011;57084;52.046;5.632;2022-10-03T05:31:02;6.8;;;2.5;;
69404;SDS011;57084;52.046;5.632;2022-10-03T05:32:12;6.8;;;2.5;;
69404;SDS011;57084;52.046;5.632;2022-10-03T05:33:05;6.8;;;2.5;;
69404;SDS011;57084;52.046;5.632;2022-10-03T05:34:05;6.8;;;2.5;;
69404;SDS011;57084;52.046;5.632;2022-10-03T05:35:14;9.3;;;2.7;;
69404;SDS011;57084;52.046;5.632;2022-10-03T05:36:07;9.3;;;2.7;;
69404;SDS011;57084;52.046;5.632;2022-10-03T05:37:15;9.3;;;2.7;;
69404;SDS011;57084;52.046;5.632;2022-10-03T05:38:12;9.3;;;2.7;;
69404;SDS011;57084;52.046;5.632;2022-10-03T05:39:22;9.3;;;2.7;;
69404;SDS011;57084;52.046;5.632;2022-10-03T05:40:02;9.3;;;2.7;;
69404;SDS011;57084;52.046;5.632;2022-10-03T05:41:02;8.4;;;2.7;;
69404;SDS011;57084;52.046;5.632;2022-10-03T05:42:18;8.4;;;2.7;;
69404;SDS011;57084;52.046;5.632;2022-10-03T05:43:03;8.4;;;2.7;;
69404;SDS011;57084;52.046;5.632;2022-10-03T05:44:03;8.4;;;2.7;;
69404;SDS011;57084;52.046;5.632;2022-10-03T05:45:03;8.4;;;2.7;;
69404;SDS011;57084;52.046;5.632;2022-10-03T05:46:03;7.9;;;2.9;;
69404;SDS011;57084;52.046;5.632;2022-10-03T05:47:06;7.9;;;2.9;;
69404;SDS011;57084;52.046;5.632;2022-10-03T05:48:11;7.9;;;2.9;;
69404;SDS011;57084;52.046;5.632;2022-10-03T05:49:14;7.9;;;2.9;;
69404;SDS011;57084;52.046;5.632;2022-10-03T05:50:10;7.9;;;2.9;;
69404;SDS011;57084;52.046;5.632;2022-10-03T05:51:06;8.0;;;2.8;;
69404;SDS011;57084;52.046;5.632;2022-10-03T05:52:16;8.0;;;2.8;;
69404;SDS011;57084;52.046;5.632;2022-10-03T05:53:05;8.0;;;2.8;;
69404;SDS011;57084;52.046;5.632;2022-10-03T05:55:11;8.0;;;2.8;;
69404;SDS011;57084;52.046;5.632;2022-10-03T05:56:04;7.4;;;2.7;;
69404;SDS011;57084;52.046;5.632;2022-10-03T05:57:16;7.4;;;2.7;;
69404;SDS011;57084;52.046;5.632;2022-10-03T05:58:14;7.4;;;2.7;;
69404;SDS011;57084;52.046;5.632;2022-10-03T05:59:17;7.4;;;2.7;;
69404;SDS011;57084;52.046;5.632;2022-10-03T06:00:07;7.4;;;2.7;;
69404;SDS011;57084;52.046;5.632;2022-10-03T06:01:16;11.7;;;2.6;;
69404;SDS011;57084;52.046;5.632;2022-10-03T06:02:18;11.7;;;2.6;;
69404;SDS011;57084;52.046;5.632;2022-10-03T06:03:17;11.7;;;2.6;;
69404;SDS011;57084;52.046;5.632;2022-10-03T06:04:12;11.7;;;2.6;;
69404;SDS011;57084;52.046;5.632;2022-10-03T06:05:07;11.7;;;2.6;;
69404;SDS011;57084;52.046;5.632;2022-10-03T06:06:07;8.0;;;2.5;;
69404;SDS011;57084;52.046;5.632;2022-10-03T06:07:13;8.0;;;2.5;;
69404;SDS011;57084;52.046;5.632;2022-10-03T06:08:11;8.0;;;2.5;;
69404;SDS011;57084;52.046;5.632;2022-10-03T06:09:19;8.0;;;2.5;;
69404;SDS011;57084;52.046;5.632;2022-10-03T06:10:16;8.0;;;2.5;;
69404;SDS011;57084;52.046;5.632;2022-10-03T06:11:08;8.4;;;2.5;;
69404;SDS011;57084;52.046;5.632;2022-10-03T06:12:03;8.4;;;2.5;;
69404;SDS011;57084;52.046;5.632;2022-10-03T06:13:10;8.4;;;2.5;;
69404;SDS011;57084;52.046;5.632;2022-10-03T06:14:14;8.4;;;2.5;;
69404;SDS011;57084;52.046;5.632;2022-10-03T06:15:14;8.4;;;2.5;;
69404;SDS011;57084;52.046;5.632;2022-10-03T06:16:12;6.9;;;2.4;;
69404;SDS011;57084;52.046;5.632;2022-10-03T06:17:10;6.9;;;2.4;;
69404;SDS011;57084;52.046;5.632;2022-10-03T06:18:10;6.9;;;2.4;;
69404;SDS011;57084;52.046;5.632;2022-10-03T06:19:07;6.9;;;2.4;;
69404;SDS011;57084;52.046;5.632;2022-10-03T06:20:09;6.9;;;2.4;;
69404;SDS011;57084;52.046;5.632;2022-10-03T06:21:10;8.4;;;2.4;;
69404;SDS011;57084;52.046;5.632;2022-10-03T06:22:24;8.4;;;2.4;;
69404;SDS011;57084;52.046;5.632;2022-10-03T06:23:11;8.4;;;2.4;;
69404;SDS011;57084;52.046;5.632;2022-10-03T06:24:12;8.4;;;2.4;;
69404;SDS011;57084;52.046;5.632;2022-10-03T06:25:15;8.4;;;2.4;;